createdAt,value
2022-11-01T00:01:49.955Z,10.80
2022-11-01T00:03:51.799Z,10.90
2022-11-01T00:05:53.348Z,10.80
2022-11-01T00:07:54.992Z,10.70
2022-11-01T00:09:56.702Z,10.70
2022-11-01T00:11:58.832Z,10.70
2022-11-01T00:14:00.448Z,10.60
2022-11-01T00:16:02.028Z,10.50
2022-11-01T00:18:03.604Z,10.50
2022-11-01T00:20:05.421Z,10.60
2022-11-01T00:22:06.979Z,10.70
2022-11-01T00:24:08.644Z,10.60
2022-11-01T00:26:14.322Z,10.60
2022-11-01T00:28:16.045Z,10.60
2022-11-01T00:30:17.696Z,10.80
2022-11-01T00:32:19.343Z,10.70
2022-11-01T00:34:20.894Z,10.70
2022-11-01T00:36:22.467Z,10.70
2022-11-01T00:38:24.103Z,10.70
2022-11-01T00:40:25.988Z,10.70
2022-11-01T00:42:27.591Z,10.80
2022-11-01T00:44:29.170Z,10.90
2022-11-01T00:46:30.916Z,10.80
2022-11-01T00:48:32.608Z,10.80
2022-11-01T00:50:34.339Z,10.70
2022-11-01T00:52:35.909Z,10.70
2022-11-01T00:54:37.512Z,10.80
2022-11-01T00:56:39.374Z,10.80
2022-11-01T00:58:41.050Z,10.80
2022-11-01T01:00:42.660Z,10.70
2022-11-01T01:02:44.298Z,10.70
2022-11-01T01:04:45.950Z,10.70
2022-11-01T01:06:47.642Z,10.80
2022-11-01T01:08:49.409Z,10.80
2022-11-01T01:10:51.046Z,10.70
2022-11-01T01:12:52.639Z,10.70
2022-11-01T01:14:54.303Z,10.70
2022-11-01T01:16:55.913Z,10.70
2022-11-01T01:18:57.863Z,10.60
2022-11-01T01:21:00.214Z,10.50
2022-11-01T01:23:01.915Z,10.70
2022-11-01T01:25:03.788Z,10.70
2022-11-01T01:27:05.334Z,10.60
2022-11-01T01:29:06.990Z,10.50
2022-11-01T01:31:09.143Z,10.60
2022-11-01T01:35:17.442Z,10.50
2022-11-01T01:37:20.174Z,10.50
2022-11-01T01:39:21.949Z,10.60
2022-11-01T01:41:42.487Z,10.60
2022-11-01T01:43:44.272Z,10.50
2022-11-01T01:45:45.834Z,10.60
2022-11-01T01:47:49.329Z,10.60
2022-11-01T01:49:54.973Z,10.50
2022-11-01T01:51:56.543Z,10.50
2022-11-01T01:53:58.798Z,10.40
2022-11-01T01:56:00.348Z,10.50
2022-11-01T01:58:02.318Z,10.50
2022-11-01T02:00:05.321Z,10.50
2022-11-01T02:02:07.118Z,10.50
2022-11-01T02:04:11.687Z,10.50
2022-11-01T02:06:17.637Z,10.60
2022-11-01T02:08:27.571Z,10.60
2022-11-01T02:10:30.008Z,10.50
2022-11-01T02:12:35.072Z,10.50
2022-11-01T02:14:36.947Z,10.60
2022-11-01T02:16:44.702Z,10.60
2022-11-01T02:18:46.465Z,10.60
2022-11-01T02:21:05.578Z,10.70
2022-11-01T02:23:07.141Z,10.60
2022-11-01T02:25:30.606Z,10.60
2022-11-01T02:27:50.718Z,10.60
2022-11-01T02:29:52.288Z,10.60
2022-11-01T02:32:12.580Z,10.60
2022-11-01T02:34:26.082Z,10.60
2022-11-01T02:36:45.605Z,10.70
2022-11-01T02:38:48.733Z,10.80
2022-11-01T02:41:03.532Z,10.70
2022-11-01T02:43:08.631Z,10.70
2022-11-01T02:45:27.821Z,10.70
2022-11-01T02:47:30.786Z,10.70
2022-11-01T02:49:36.966Z,10.70
2022-11-01T02:51:38.779Z,10.80
2022-11-01T02:53:40.444Z,10.80
2022-11-01T02:55:42.041Z,10.90
2022-11-01T02:57:43.649Z,10.90
2022-11-01T02:59:46.387Z,11.10
2022-11-01T03:01:50.744Z,11.20
2022-11-01T03:03:53.391Z,11.00
2022-11-01T03:06:00.859Z,10.90
2022-11-01T03:08:05.704Z,10.90
2022-11-01T03:10:08.084Z,10.90
2022-11-01T03:12:16.351Z,10.90
2022-11-01T03:14:26.570Z,10.80
2022-11-01T03:16:33.578Z,10.90
2022-11-01T03:18:36.764Z,10.90
2022-11-01T03:20:47.565Z,11.10
2022-11-01T03:22:54.106Z,11.00
2022-11-01T03:25:05.779Z,10.90
2022-11-01T03:27:15.331Z,11.00
2022-11-01T03:29:17.781Z,10.90
2022-11-01T03:31:25.287Z,11.00
2022-11-01T03:33:27.740Z,11.00
2022-11-01T03:35:31.354Z,11.00
2022-11-01T03:37:33.693Z,11.00
2022-11-01T03:39:55.598Z,11.10
2022-11-01T03:42:01.999Z,11.00
2022-11-01T03:44:04.225Z,11.10
2022-11-01T03:46:05.999Z,11.10
2022-11-01T03:48:07.701Z,11.10
2022-11-01T03:50:16.625Z,11.10
2022-11-01T03:52:18.194Z,11.00
2022-11-01T03:54:19.799Z,11.10
2022-11-01T03:56:21.709Z,11.10
2022-11-01T03:58:23.385Z,11.10
2022-11-01T04:00:26.502Z,11.20
2022-11-01T04:02:28.044Z,11.30
2022-11-01T04:04:29.669Z,11.30
2022-11-01T04:06:32.047Z,11.30
2022-11-01T04:08:33.916Z,11.40
2022-11-01T04:10:35.697Z,11.30
2022-11-01T04:12:37.234Z,11.30
2022-11-01T04:14:57.515Z,11.20
2022-11-01T04:17:17.443Z,11.20
2022-11-01T04:19:38.014Z,11.20
2022-11-01T04:21:40.353Z,11.10
2022-11-01T04:23:42.823Z,11.10
2022-11-01T04:25:45.224Z,11.20
2022-11-01T04:27:46.771Z,11.20
2022-11-01T04:29:48.312Z,11.30
2022-11-01T04:31:49.863Z,11.20
2022-11-01T04:33:51.470Z,11.30
2022-11-01T04:35:53.017Z,11.20
2022-11-01T04:37:58.404Z,11.20
2022-11-01T04:40:00.161Z,11.20
2022-11-01T04:42:01.968Z,11.30
2022-11-01T04:44:03.604Z,11.30
2022-11-01T04:46:05.857Z,11.40
2022-11-01T04:48:09.195Z,11.50
2022-11-01T04:50:10.878Z,11.60
2022-11-01T04:52:12.464Z,11.40
2022-11-01T04:54:14.083Z,11.40
2022-11-01T04:56:15.657Z,11.40
2022-11-01T04:58:17.242Z,11.30
2022-11-01T05:00:18.885Z,11.30
2022-11-01T05:02:21.224Z,11.20
2022-11-01T05:04:23.000Z,11.20
2022-11-01T05:06:24.585Z,11.30
2022-11-01T05:08:26.310Z,11.30
2022-11-01T05:10:27.990Z,11.20
2022-11-01T05:12:29.857Z,11.20
2022-11-01T05:14:31.539Z,11.20
2022-11-01T05:16:33.114Z,11.20
2022-11-01T05:18:34.672Z,11.20
2022-11-01T05:20:36.300Z,11.30
2022-11-01T05:22:37.908Z,11.30
2022-11-01T05:24:39.563Z,11.30
2022-11-01T05:26:41.231Z,11.30
2022-11-01T05:28:42.872Z,11.30
2022-11-01T05:30:44.457Z,11.40
2022-11-01T05:32:46.064Z,11.30
2022-11-01T05:34:49.651Z,11.30
2022-11-01T05:36:51.222Z,11.40
2022-11-01T05:38:55.901Z,11.40
2022-11-01T05:40:57.573Z,11.30
2022-11-01T05:42:59.464Z,11.40
2022-11-01T05:45:01.269Z,11.40
2022-11-01T05:47:04.311Z,11.40
2022-11-01T05:49:05.933Z,11.40
2022-11-01T05:51:08.344Z,11.50
2022-11-01T05:53:10.316Z,11.40
2022-11-01T05:55:12.215Z,11.40
2022-11-01T05:57:13.769Z,11.40
2022-11-01T05:59:15.563Z,11.40
2022-11-01T06:01:17.923Z,11.40
2022-11-01T06:03:19.625Z,11.40
2022-11-01T06:05:21.225Z,11.40
2022-11-01T06:07:22.892Z,11.30
2022-11-01T06:09:24.538Z,11.40
2022-11-01T06:11:26.835Z,11.40
2022-11-01T06:13:28.426Z,11.40
2022-11-01T06:15:33.115Z,11.40
2022-11-01T06:17:37.330Z,11.30
2022-11-01T06:19:39.076Z,11.30
2022-11-01T06:21:40.708Z,11.40
2022-11-01T06:23:46.064Z,11.40
2022-11-01T06:25:47.719Z,11.50
2022-11-01T06:27:49.504Z,11.50
2022-11-01T06:29:51.050Z,11.50
2022-11-01T06:31:52.757Z,11.50
2022-11-01T06:33:54.337Z,11.50
2022-11-01T06:35:56.030Z,11.50
2022-11-01T06:38:04.790Z,11.40
2022-11-01T06:40:06.837Z,11.50
2022-11-01T06:42:09.190Z,11.50
2022-11-01T06:44:10.746Z,11.60
2022-11-01T06:46:12.354Z,11.60
2022-11-01T06:48:13.907Z,11.60
2022-11-01T06:50:15.484Z,11.70
2022-11-01T06:52:17.156Z,11.60
2022-11-01T06:54:18.813Z,11.70
2022-11-01T06:56:20.614Z,11.80
2022-11-01T06:58:22.225Z,11.80
2022-11-01T07:00:23.886Z,11.80
2022-11-01T07:02:29.652Z,11.90
2022-11-01T07:04:31.917Z,11.80
2022-11-01T07:06:33.482Z,11.90
2022-11-01T07:08:35.077Z,12.00
2022-11-01T07:10:37.576Z,12.10
2022-11-01T07:12:39.168Z,12.00
2022-11-01T07:14:40.800Z,12.00
2022-11-01T07:16:42.373Z,12.20
2022-11-01T07:18:44.783Z,12.20
2022-11-01T07:23:03.159Z,12.30
2022-11-01T07:25:05.273Z,12.20
2022-11-01T07:27:07.046Z,12.20
2022-11-01T07:29:08.687Z,12.20
2022-11-01T07:31:10.402Z,12.20
2022-11-01T07:33:11.984Z,12.30
2022-11-01T07:35:13.803Z,12.40
2022-11-01T07:37:15.488Z,12.40
2022-11-01T07:39:17.145Z,12.40
2022-11-01T07:41:18.752Z,12.40
2022-11-01T07:43:20.798Z,12.50
2022-11-01T07:45:22.589Z,12.50
2022-11-01T07:47:24.160Z,12.50
2022-11-01T07:49:26.193Z,12.50
2022-11-01T07:51:28.201Z,12.60
2022-11-01T07:53:29.775Z,12.60
2022-11-01T07:55:31.603Z,12.60
2022-11-01T07:57:37.055Z,12.60
2022-11-01T07:59:38.791Z,12.60
2022-11-01T08:01:40.586Z,12.50
2022-11-01T08:03:42.593Z,12.70
2022-11-01T08:05:44.672Z,12.80
2022-11-01T08:07:46.260Z,12.90
2022-11-01T08:09:47.933Z,12.90
2022-11-01T08:11:49.832Z,13.00
2022-11-01T08:13:53.211Z,13.00
2022-11-01T08:15:55.146Z,13.10
2022-11-01T08:17:57.686Z,13.20
2022-11-01T08:19:59.310Z,13.30
2022-11-01T08:22:00.861Z,13.50
2022-11-01T08:24:02.483Z,13.50
2022-11-01T08:26:06.176Z,13.60
2022-11-01T08:28:09.005Z,13.60
2022-11-01T08:30:10.834Z,13.60
2022-11-01T08:32:12.545Z,13.60
2022-11-01T08:34:17.027Z,13.70
2022-11-01T08:36:18.983Z,13.70
2022-11-01T08:38:20.632Z,13.80
2022-11-01T08:40:22.804Z,13.90
2022-11-01T08:42:24.413Z,13.90
2022-11-01T08:44:26.035Z,14.00
2022-11-01T08:46:27.588Z,14.10
2022-11-01T08:48:29.158Z,14.10
2022-11-01T08:50:31.472Z,14.20
2022-11-01T08:52:33.038Z,14.20
2022-11-01T08:54:34.824Z,14.20
2022-11-01T08:56:36.419Z,14.30
2022-11-01T08:58:38.078Z,14.30
2022-11-01T09:00:39.733Z,14.30
2022-11-01T09:02:41.592Z,14.40
2022-11-01T09:04:43.197Z,14.40
2022-11-01T09:06:44.948Z,14.40
2022-11-01T09:08:46.509Z,14.50
2022-11-01T09:10:48.112Z,14.60
2022-11-01T09:12:49.693Z,14.60
2022-11-01T09:14:51.371Z,14.70
2022-11-01T09:16:52.964Z,14.80
2022-11-01T09:18:54.714Z,14.80
2022-11-01T09:20:56.480Z,14.80
2022-11-01T09:22:58.299Z,14.80
2022-11-01T09:24:59.947Z,14.80
2022-11-01T09:27:02.194Z,14.90
2022-11-01T09:29:04.211Z,14.90
2022-11-01T09:31:22.215Z,14.80
2022-11-01T09:33:24.253Z,14.80
2022-11-01T09:35:25.837Z,14.90
2022-11-01T09:37:27.403Z,14.90
2022-11-01T09:39:29.070Z,15.00
2022-11-01T09:41:36.732Z,15.10
2022-11-01T09:43:39.803Z,15.20
2022-11-01T09:45:41.384Z,15.30
2022-11-01T09:47:46.127Z,15.40
2022-11-01T09:49:49.982Z,15.60
2022-11-01T09:51:51.631Z,15.70
2022-11-01T09:53:55.423Z,16.00
2022-11-01T09:56:00.119Z,16.10
2022-11-01T09:58:06.967Z,16.30
2022-11-01T10:00:14.442Z,16.50
2022-11-01T10:02:26.303Z,16.80
2022-11-01T10:04:40.224Z,16.90
2022-11-01T10:06:51.647Z,17.20
2022-11-01T10:08:57.339Z,17.50
2022-11-01T10:11:14.121Z,17.80
2022-11-01T10:13:21.790Z,17.80
2022-11-01T10:15:32.643Z,18.00
2022-11-01T10:17:52.101Z,18.20
2022-11-01T10:19:54.442Z,18.40
2022-11-01T10:22:01.047Z,18.70
2022-11-01T10:24:03.860Z,18.80
2022-11-01T10:26:06.656Z,18.90
2022-11-01T10:28:15.867Z,18.90
2022-11-01T10:30:18.086Z,18.80
2022-11-01T10:32:22.873Z,19.00
2022-11-01T10:34:36.420Z,19.10
2022-11-01T10:36:39.996Z,19.00
2022-11-01T10:39:23.058Z,18.60
2022-11-01T10:41:03.964Z,18.40
2022-11-01T10:43:11.223Z,18.30
2022-11-01T10:45:16.507Z,18.30
2022-11-01T10:47:19.387Z,18.40
2022-11-01T10:49:22.354Z,18.40
2022-11-01T10:51:28.125Z,18.40
2022-11-01T10:53:31.953Z,18.50
2022-11-01T10:55:41.397Z,18.40
2022-11-01T10:57:48.573Z,18.30
2022-11-01T10:59:50.874Z,18.20
2022-11-01T11:01:53.109Z,18.30
2022-11-01T11:03:56.361Z,18.20
2022-11-01T11:06:05.801Z,18.20
2022-11-01T11:08:13.325Z,18.20
2022-11-01T11:10:21.027Z,18.00
2022-11-01T11:12:27.742Z,18.10
2022-11-01T11:14:31.705Z,18.00
2022-11-01T11:16:33.406Z,18.00
2022-11-01T11:18:37.700Z,18.10
2022-11-01T11:20:39.821Z,18.00
2022-11-01T11:22:42.632Z,18.00
2022-11-01T11:24:45.706Z,18.00
2022-11-01T11:26:53.029Z,18.10
2022-11-01T11:28:56.832Z,18.00
2022-11-01T11:31:11.145Z,18.10
2022-11-01T11:33:16.652Z,18.30
2022-11-01T11:35:20.021Z,18.20
2022-11-01T11:37:23.590Z,18.10
2022-11-01T11:39:29.527Z,18.20
2022-11-01T11:41:32.916Z,18.20
2022-11-01T11:43:36.179Z,18.20
2022-11-01T11:45:39.979Z,18.20
2022-11-01T11:47:41.605Z,18.20
2022-11-01T11:49:43.697Z,18.20
2022-11-01T11:51:46.105Z,18.40
2022-11-01T11:54:13.888Z,18.50
2022-11-01T11:56:20.539Z,18.70
2022-11-01T11:58:54.219Z,18.60
2022-11-01T12:01:01.779Z,18.60
2022-11-01T12:03:05.665Z,18.70
2022-11-01T12:05:08.876Z,18.80
2022-11-01T12:07:23.503Z,18.80
2022-11-01T12:09:44.320Z,18.70
2022-11-01T12:11:46.365Z,18.90
2022-11-01T12:14:01.937Z,19.00
2022-11-01T12:16:06.644Z,19.10
2022-11-01T12:18:16.196Z,19.10
2022-11-01T12:20:25.268Z,19.10
2022-11-01T12:22:32.419Z,19.30
2022-11-01T12:24:42.920Z,19.50
2022-11-01T12:26:45.668Z,19.80
2022-11-01T12:29:02.909Z,19.80
2022-11-01T12:31:11.750Z,19.80
2022-11-01T12:33:31.657Z,20.00
2022-11-01T12:35:36.665Z,20.30
2022-11-01T12:37:47.880Z,20.00
2022-11-01T12:40:02.352Z,19.90
2022-11-01T12:42:04.623Z,21.00
2022-11-01T12:44:13.284Z,21.40
2022-11-01T12:46:38.259Z,21.40
2022-11-01T12:49:09.248Z,21.80
2022-11-01T12:51:18.127Z,21.60
2022-11-01T12:53:22.180Z,21.40
2022-11-01T12:55:29.797Z,21.80
2022-11-01T12:57:31.657Z,22.70
2022-11-01T12:59:35.632Z,22.50
2022-11-01T13:01:43.167Z,20.70
2022-11-01T13:03:44.934Z,20.10
2022-11-01T13:06:04.956Z,20.50
2022-11-01T13:08:18.497Z,19.20
2022-11-01T13:10:20.128Z,18.90
2022-11-01T13:12:27.794Z,19.00
2022-11-01T13:14:38.719Z,19.50
2022-11-01T13:16:43.719Z,19.30
2022-11-01T13:19:11.866Z,18.70
2022-11-01T13:21:16.491Z,18.60
2022-11-01T13:23:30.911Z,18.70
2022-11-01T13:25:44.583Z,18.70
2022-11-01T13:27:56.198Z,19.30
2022-11-01T13:30:02.045Z,18.80
2022-11-01T13:32:06.905Z,19.40
2022-11-01T13:34:20.795Z,19.50
2022-11-01T13:36:32.994Z,19.60
2022-11-01T13:38:40.431Z,19.50
2022-11-01T13:40:44.815Z,18.60
2022-11-01T13:42:52.027Z,18.30
2022-11-01T13:45:12.401Z,18.00
2022-11-01T13:47:17.181Z,18.40
2022-11-01T13:49:24.677Z,18.20
2022-11-01T13:51:40.569Z,18.20
2022-11-01T13:53:49.067Z,17.70
2022-11-01T13:55:57.630Z,17.70
2022-11-01T13:57:59.564Z,17.80
2022-11-01T14:00:03.254Z,18.50
2022-11-01T14:02:23.042Z,18.20
2022-11-01T14:04:24.743Z,18.20
2022-11-01T14:08:36.922Z,18.50
2022-11-01T14:10:38.533Z,18.30
2022-11-01T14:12:48.127Z,18.30
2022-11-01T14:14:51.940Z,17.80
2022-11-01T14:16:54.763Z,17.60
2022-11-01T14:19:02.683Z,17.60
2022-11-01T14:21:21.365Z,17.40
2022-11-01T14:23:27.692Z,17.50
2022-11-01T14:25:30.067Z,17.90
2022-11-01T14:27:35.426Z,17.80
2022-11-01T14:29:37.121Z,17.70
2022-11-01T14:31:39.253Z,17.40
2022-11-01T14:33:41.082Z,17.60
2022-11-01T14:35:45.645Z,17.60
2022-11-01T14:37:49.125Z,17.60
2022-11-01T14:39:54.812Z,17.60
2022-11-01T14:41:57.260Z,17.70
2022-11-01T14:44:03.129Z,17.70
2022-11-01T14:46:07.825Z,17.60
2022-11-01T14:48:12.828Z,17.40
2022-11-01T14:50:18.600Z,17.30
2022-11-01T14:52:56.403Z,17.00
2022-11-01T14:55:06.704Z,17.00
2022-11-01T14:57:20.380Z,17.10
2022-11-01T14:59:22.010Z,17.20
2022-11-01T15:01:23.847Z,17.30
2022-11-01T15:03:25.580Z,17.30
2022-11-01T15:05:27.404Z,17.10
2022-11-01T15:07:31.504Z,17.00
2022-11-01T15:09:33.273Z,17.00
2022-11-01T15:11:35.243Z,16.80
2022-11-01T15:13:40.746Z,16.80
2022-11-01T15:15:42.400Z,16.70
2022-11-01T15:17:50.199Z,16.70
2022-11-01T15:19:53.212Z,16.60
2022-11-01T15:22:00.962Z,16.60
2022-11-01T15:24:04.881Z,16.60
2022-11-01T15:26:12.440Z,16.70
2022-11-01T15:28:19.962Z,16.70
2022-11-01T15:30:24.140Z,16.70
2022-11-01T15:32:30.471Z,16.70
2022-11-01T15:34:34.461Z,16.60
2022-11-01T15:36:36.918Z,16.50
2022-11-01T15:38:55.226Z,16.50
2022-11-01T15:40:56.977Z,16.50
2022-11-01T15:42:59.424Z,16.40
2022-11-01T15:45:22.387Z,16.40
2022-11-01T15:47:25.971Z,16.40
2022-11-01T15:49:33.216Z,16.30
2022-11-01T15:51:36.417Z,16.20
2022-11-01T15:53:39.015Z,16.00
2022-11-01T15:55:44.121Z,16.00
2022-11-01T15:57:47.700Z,15.90
2022-11-01T15:59:53.598Z,15.90
2022-11-01T16:01:57.568Z,15.80
2022-11-01T16:04:08.349Z,15.70
2022-11-01T16:06:30.179Z,15.60
2022-11-01T16:08:35.226Z,15.40
2022-11-01T16:10:36.942Z,15.20
2022-11-01T16:12:38.852Z,15.20
2022-11-01T16:14:40.439Z,15.10
2022-11-01T16:16:55.267Z,15.00
2022-11-01T16:18:57.073Z,14.90
2022-11-01T16:21:06.273Z,14.80
2022-11-01T16:23:08.636Z,14.80
2022-11-01T16:25:10.207Z,14.70
2022-11-01T16:27:25.265Z,14.60
2022-11-01T16:29:40.406Z,14.60
2022-11-01T16:31:41.952Z,14.50
2022-11-01T16:33:44.451Z,14.40
2022-11-01T16:35:47.171Z,14.40
2022-11-01T16:37:48.752Z,14.20
2022-11-01T16:39:50.604Z,14.20
2022-11-01T16:41:52.713Z,14.10
2022-11-01T16:43:58.393Z,14.00
2022-11-01T16:46:00.556Z,13.90
2022-11-01T16:48:02.408Z,13.80
2022-11-01T16:50:04.279Z,13.90
2022-11-01T16:52:10.477Z,13.90
2022-11-01T16:54:12.775Z,13.80
2022-11-01T16:56:40.766Z,13.70
2022-11-01T16:58:42.390Z,13.70
2022-11-01T17:00:54.470Z,13.70
2022-11-01T17:02:56.830Z,13.70
2022-11-01T17:05:02.887Z,13.60
2022-11-01T17:07:04.562Z,13.50
2022-11-01T17:09:13.541Z,13.30
2022-11-01T17:11:15.346Z,13.30
2022-11-01T17:13:17.403Z,13.20
2022-11-01T17:15:19.531Z,13.10
2022-11-01T17:17:24.504Z,13.20
2022-11-01T17:19:29.321Z,13.40
2022-11-01T17:21:32.216Z,13.30
2022-11-01T17:23:34.620Z,13.20
2022-11-01T17:25:36.214Z,13.10
2022-11-01T17:27:37.818Z,13.20
2022-11-01T17:29:39.430Z,13.20
2022-11-01T17:31:41.059Z,13.10
2022-11-01T17:33:42.622Z,12.90
2022-11-01T17:35:44.343Z,12.90
2022-11-01T17:37:45.901Z,12.90
2022-11-01T17:39:47.543Z,12.90
2022-11-01T17:41:49.143Z,13.10
2022-11-01T17:43:50.921Z,13.00
2022-11-01T17:45:52.565Z,12.90
2022-11-01T17:47:54.627Z,12.70
2022-11-01T17:49:56.249Z,12.50
2022-11-01T17:51:57.956Z,12.50
2022-11-01T17:53:59.627Z,12.40
2022-11-01T17:56:01.260Z,12.50
2022-11-01T17:58:03.775Z,12.70
2022-11-01T18:00:06.421Z,12.30
2022-11-01T18:02:09.477Z,12.10
2022-11-01T18:04:11.595Z,12.00
2022-11-01T18:06:13.307Z,11.90
2022-11-01T18:08:16.715Z,12.00
2022-11-01T18:10:40.607Z,12.20
2022-11-01T18:12:50.921Z,11.90
2022-11-01T18:17:01.533Z,12.00
2022-11-01T18:19:03.234Z,12.00
2022-11-01T18:21:04.757Z,12.00
2022-11-01T18:23:08.588Z,12.00
2022-11-01T18:25:10.137Z,11.90
2022-11-01T18:27:12.447Z,12.00
2022-11-01T18:29:13.987Z,12.10
2022-11-01T18:31:17.940Z,12.20
2022-11-01T18:33:34.623Z,12.20
2022-11-01T18:35:41.951Z,11.80
2022-11-01T18:37:54.577Z,11.50
2022-11-01T18:40:13.916Z,11.80
2022-11-01T18:42:16.065Z,11.80
2022-11-01T18:44:17.716Z,11.60
2022-11-01T18:46:27.466Z,11.70
2022-11-01T18:48:29.338Z,11.60
2022-11-01T18:50:31.171Z,11.40
2022-11-01T18:52:33.137Z,11.50
2022-11-01T18:54:45.802Z,11.70
2022-11-01T18:56:49.214Z,11.50
2022-11-01T18:58:52.284Z,11.30
2022-11-01T19:01:02.255Z,11.40
2022-11-01T19:03:10.070Z,11.30
2022-11-01T19:05:11.873Z,11.30
2022-11-01T19:07:22.529Z,11.50
2022-11-01T19:09:25.393Z,11.50
2022-11-01T19:11:27.922Z,11.30
2022-11-01T19:13:32.201Z,11.40
2022-11-01T19:15:34.658Z,11.40
2022-11-01T19:17:37.477Z,11.30
2022-11-01T19:19:41.247Z,11.40
2022-11-01T19:21:42.912Z,11.40
2022-11-01T19:23:51.772Z,11.10
2022-11-01T19:25:53.719Z,11.10
2022-11-01T19:27:56.501Z,11.30
2022-11-01T19:29:59.144Z,11.10
2022-11-01T19:32:02.155Z,11.00
2022-11-01T19:34:05.181Z,10.90
2022-11-01T19:36:19.565Z,10.90
2022-11-01T19:38:21.408Z,10.90
2022-11-01T19:40:42.261Z,10.80
2022-11-01T19:42:43.823Z,10.70
2022-11-01T19:44:45.953Z,10.60
2022-11-01T19:46:48.184Z,10.90
2022-11-01T19:48:51.552Z,10.80
2022-11-01T19:50:53.410Z,10.80
2022-11-01T19:52:55.961Z,10.80
2022-11-01T19:54:57.581Z,10.80
2022-11-01T19:56:59.327Z,10.80
2022-11-01T19:59:03.601Z,10.70
2022-11-01T20:01:17.249Z,10.60
2022-11-01T20:03:26.202Z,10.60
2022-11-01T20:05:28.967Z,10.50
2022-11-01T20:07:31.214Z,10.40
2022-11-01T20:09:36.521Z,10.50
2022-11-01T20:11:38.098Z,10.60
2022-11-01T20:13:39.707Z,10.80
2022-11-01T20:15:41.356Z,10.90
2022-11-01T20:19:49.519Z,11.00
2022-11-01T20:21:51.218Z,11.00
2022-11-01T20:23:52.867Z,10.90
2022-11-01T20:25:55.191Z,10.60
2022-11-01T20:27:56.831Z,10.50
2022-11-01T20:29:58.489Z,10.50
2022-11-01T20:32:00.288Z,10.60
2022-11-01T20:34:01.983Z,10.50
2022-11-01T20:36:08.273Z,10.40
2022-11-01T20:38:12.506Z,10.40
2022-11-01T20:40:15.171Z,10.30
2022-11-01T20:42:16.838Z,10.10
2022-11-01T20:44:18.510Z,10.30
2022-11-01T20:46:20.189Z,10.30
2022-11-01T20:48:21.727Z,10.30
2022-11-01T20:50:23.367Z,10.30
2022-11-01T20:52:40.526Z,10.20
2022-11-01T20:54:42.491Z,10.30
2022-11-01T20:56:44.180Z,10.20
2022-11-01T20:58:45.738Z,10.40
2022-11-01T21:00:47.327Z,10.40
2022-11-01T21:02:49.345Z,10.40
2022-11-01T21:04:55.063Z,10.40
2022-11-01T21:06:56.828Z,10.20
2022-11-01T21:08:58.741Z,10.20
2022-11-01T21:11:04.308Z,10.20
2022-11-01T21:13:24.768Z,10.20
2022-11-01T21:15:26.299Z,10.00
2022-11-01T21:17:27.891Z,9.90
2022-11-01T21:19:29.448Z,9.90
2022-11-01T21:21:35.032Z,9.80
2022-11-01T21:23:39.335Z,9.90
2022-11-01T21:25:43.249Z,9.90
2022-11-01T21:27:48.406Z,9.80
2022-11-01T21:29:50.598Z,9.70
2022-11-01T21:31:52.471Z,9.50
2022-11-01T21:33:54.022Z,9.50
2022-11-01T21:35:55.666Z,9.80
2022-11-01T21:37:57.287Z,9.80
2022-11-01T21:40:04.902Z,9.60
2022-11-01T21:42:31.861Z,9.70
2022-11-01T21:44:39.873Z,9.90
2022-11-01T21:46:42.321Z,9.70
2022-11-01T21:48:43.866Z,9.70
2022-11-01T21:50:45.466Z,9.70
2022-11-01T21:52:47.221Z,9.80
2022-11-01T21:54:48.846Z,9.80
2022-11-01T21:56:50.539Z,9.60
2022-11-01T21:58:52.126Z,9.60
2022-11-01T22:00:53.714Z,9.60
2022-11-01T22:02:55.350Z,9.60
2022-11-01T22:04:57.201Z,9.50
2022-11-01T22:07:02.806Z,9.50
2022-11-01T22:09:04.576Z,9.50
2022-11-01T22:11:06.149Z,9.40
2022-11-01T22:13:08.213Z,9.40
2022-11-01T22:15:10.301Z,9.30
2022-11-01T22:17:12.009Z,9.30
2022-11-01T22:19:13.629Z,9.40
2022-11-01T22:21:15.625Z,9.50
2022-11-01T22:23:17.175Z,9.50
2022-11-01T22:25:18.930Z,9.50
2022-11-01T22:27:20.603Z,9.60
2022-11-01T22:29:22.267Z,9.40
2022-11-01T22:31:23.917Z,9.40
2022-11-01T22:33:26.668Z,9.30
2022-11-01T22:35:28.335Z,9.30
2022-11-01T22:37:30.446Z,9.20
2022-11-01T22:39:32.074Z,9.20
2022-11-01T22:41:34.717Z,9.20
2022-11-01T22:43:37.695Z,9.10
2022-11-01T22:45:40.145Z,9.20
2022-11-01T22:47:42.092Z,9.40
2022-11-01T22:49:47.617Z,9.30
2022-11-01T22:51:57.547Z,9.30
2022-11-01T22:53:59.453Z,9.30
2022-11-01T22:56:01.256Z,9.30
2022-11-01T22:58:03.729Z,9.20
2022-11-01T23:00:23.297Z,9.20
2022-11-01T23:02:29.703Z,9.20
2022-11-01T23:04:33.802Z,9.00
2022-11-01T23:06:35.406Z,9.10
2022-11-01T23:08:38.738Z,9.10
2022-11-01T23:10:49.967Z,9.00
2022-11-01T23:13:14.312Z,9.00
2022-11-01T23:15:34.411Z,8.90
2022-11-01T23:17:36.787Z,9.10
2022-11-01T23:21:40.886Z,9.00
2022-11-01T23:23:43.520Z,9.10
2022-11-01T23:25:45.659Z,9.00
2022-11-01T23:27:47.283Z,9.10
2022-11-01T23:29:49.814Z,9.00
2022-11-01T23:31:51.393Z,9.00
2022-11-01T23:33:53.035Z,8.80
2022-11-01T23:35:56.298Z,8.80
2022-11-01T23:37:58.092Z,8.80
2022-11-01T23:39:59.796Z,8.80
2022-11-01T23:42:01.366Z,8.90
2022-11-01T23:44:10.669Z,8.80
2022-11-01T23:46:13.024Z,8.80
2022-11-01T23:48:14.581Z,8.80
2022-11-01T23:50:21.582Z,8.80
2022-11-01T23:52:35.232Z,8.70
2022-11-01T23:54:41.967Z,8.60
2022-11-01T23:56:43.634Z,8.70
2022-11-01T23:58:48.236Z,8.70
